createdAt,value
2018-10-02T00:02:55.860Z,8.87
2018-10-02T00:07:50.717Z,8.96
2018-10-02T00:12:50.545Z,8.91
2018-10-02T00:17:49.357Z,8.82
2018-10-02T00:22:44.178Z,8.78
2018-10-02T00:27:38.981Z,8.72
2018-10-02T00:32:33.930Z,8.57
2018-10-02T00:37:28.820Z,8.56
2018-10-02T00:42:23.646Z,8.59
2018-10-02T00:47:18.442Z,8.48
2018-10-02T00:52:13.258Z,8.34
2018-10-02T00:57:08.146Z,8.32
2018-10-02T01:02:02.950Z,8.41
2018-10-02T01:06:57.757Z,8.47
2018-10-02T01:11:52.595Z,8.65
2018-10-02T01:16:47.392Z,8.66
2018-10-02T01:21:42.167Z,8.77
2018-10-02T01:26:36.961Z,8.71
2018-10-02T01:31:31.736Z,8.50
2018-10-02T01:36:26.470Z,8.47
2018-10-02T01:41:21.415Z,8.44
2018-10-02T01:46:16.374Z,8.37
2018-10-02T01:51:11.178Z,8.27
2018-10-02T01:56:05.990Z,8.36
2018-10-02T02:01:00.825Z,8.35
2018-10-02T02:05:55.643Z,8.49
2018-10-02T02:10:50.500Z,8.46
2018-10-02T02:15:45.301Z,8.47
2018-10-02T02:20:40.131Z,8.45
2018-10-02T02:25:34.953Z,8.31
2018-10-02T02:30:29.843Z,8.33
2018-10-02T02:35:24.642Z,8.40
2018-10-02T02:40:19.436Z,8.47
2018-10-02T02:45:14.291Z,8.20
2018-10-02T02:50:14.299Z,8.20
2018-10-02T02:55:09.105Z,8.13
2018-10-02T03:00:04.148Z,8.03
2018-10-02T03:04:58.950Z,7.85
2018-10-02T03:09:53.785Z,7.80
2018-10-02T03:14:48.694Z,7.82
2018-10-02T03:19:43.493Z,7.63
2018-10-02T03:24:38.316Z,7.73
2018-10-02T03:29:33.133Z,7.55
2018-10-02T03:34:27.929Z,7.61
2018-10-02T03:39:22.825Z,7.61
2018-10-02T03:44:17.802Z,7.56
2018-10-02T03:49:12.590Z,7.68
2018-10-02T03:54:07.642Z,7.59
2018-10-02T03:59:02.781Z,7.50
2018-10-02T04:03:57.738Z,7.45
2018-10-02T04:08:52.511Z,7.48
2018-10-02T04:13:47.862Z,7.27
2018-10-02T04:18:42.715Z,7.19
2018-10-02T04:23:37.494Z,7.12
2018-10-02T04:28:32.319Z,7.10
2018-10-02T04:33:27.108Z,7.11
2018-10-02T04:38:21.887Z,6.92
2018-10-02T04:43:16.706Z,6.70
2018-10-02T04:48:11.491Z,6.88
2018-10-02T04:53:07.030Z,6.93
2018-10-02T04:58:01.825Z,6.91
2018-10-02T05:02:56.645Z,6.86
2018-10-02T05:07:51.470Z,6.82
2018-10-02T05:12:46.925Z,6.83
2018-10-02T05:17:41.696Z,6.69
2018-10-02T05:22:36.504Z,6.82
2018-10-02T05:27:31.296Z,6.81
2018-10-02T05:32:26.954Z,6.69
2018-10-02T05:37:21.749Z,6.75
2018-10-02T05:42:16.605Z,6.67
2018-10-02T05:47:11.462Z,6.73
2018-10-02T05:52:06.228Z,6.82
2018-10-02T05:57:01.099Z,6.88
2018-10-02T06:01:56.245Z,6.97
2018-10-02T06:06:51.065Z,6.90
2018-10-02T06:11:45.889Z,7.17
2018-10-02T06:16:41.231Z,7.15
2018-10-02T06:21:36.062Z,7.05
2018-10-02T06:26:30.910Z,7.07
2018-10-02T06:31:25.962Z,7.08
2018-10-02T06:36:20.785Z,7.09
2018-10-02T06:41:15.621Z,7.06
2018-10-02T06:46:10.729Z,7.08
2018-10-02T06:51:06.431Z,7.29
2018-10-02T06:56:01.189Z,7.48
2018-10-02T07:00:55.979Z,7.71
2018-10-02T07:05:50.760Z,7.84
2018-10-02T07:10:45.553Z,8.01
2018-10-02T07:15:40.300Z,8.18
2018-10-02T07:20:35.634Z,8.32
2018-10-02T07:25:30.557Z,8.59
2018-10-02T07:30:25.466Z,9.01
2018-10-02T07:35:20.314Z,9.74
2018-10-02T07:40:15.109Z,10.22
2018-10-02T07:45:10.002Z,10.13
2018-10-02T07:50:04.897Z,10.15
2018-10-02T07:54:59.692Z,10.04
2018-10-02T07:59:54.586Z,9.95
2018-10-02T08:04:49.623Z,9.76
2018-10-02T08:09:44.600Z,9.79
2018-10-02T08:14:39.431Z,10.17
2018-10-02T08:19:34.349Z,10.67
2018-10-02T08:24:29.166Z,11.40
2018-10-02T08:29:24.047Z,11.85
2018-10-02T08:34:18.920Z,11.84
2018-10-02T08:39:13.747Z,12.20
2018-10-02T08:44:08.657Z,12.28
2018-10-02T08:49:03.521Z,12.76
2018-10-02T08:53:58.394Z,12.66
2018-10-02T08:58:53.186Z,12.30
2018-10-02T09:03:48.028Z,12.08
2018-10-02T09:08:42.910Z,12.50
2018-10-02T09:13:37.732Z,13.47
2018-10-02T09:18:33.019Z,14.08
2018-10-02T09:23:27.813Z,13.42
2018-10-02T09:28:23.464Z,12.95
2018-10-02T09:33:24.597Z,12.75
2018-10-02T09:38:25.234Z,13.42
2018-10-02T09:43:21.965Z,13.73
2018-10-02T09:48:16.705Z,13.68
2018-10-02T09:53:11.543Z,13.94
2018-10-02T09:58:06.458Z,14.03
2018-10-02T10:03:01.357Z,14.24
2018-10-02T10:07:56.347Z,14.01
2018-10-02T10:12:51.522Z,13.67
2018-10-02T10:17:46.325Z,13.50
2018-10-02T10:22:41.187Z,13.74
2018-10-02T10:27:36.049Z,13.88
2018-10-02T10:32:30.916Z,14.37
2018-10-02T10:37:25.698Z,14.22
2018-10-02T10:42:20.529Z,14.42
2018-10-02T10:47:15.458Z,14.53
2018-10-02T10:52:10.314Z,14.45
2018-10-02T10:57:05.125Z,14.46
2018-10-02T11:01:59.883Z,14.34
2018-10-02T11:06:54.728Z,14.44
2018-10-02T11:11:49.564Z,13.85
2018-10-02T11:16:44.365Z,13.26
2018-10-02T11:21:39.279Z,13.50
2018-10-02T11:26:34.082Z,13.73
2018-10-02T11:31:28.990Z,13.57
2018-10-02T11:36:23.802Z,13.80
2018-10-02T11:41:19.543Z,13.75
2018-10-02T11:46:14.425Z,13.99
2018-10-02T11:51:09.245Z,13.89
2018-10-02T11:56:04.112Z,14.23
2018-10-02T12:00:59.038Z,14.25
2018-10-02T12:05:53.799Z,14.31
2018-10-02T12:10:48.589Z,14.79
2018-10-02T12:15:44.267Z,14.79
2018-10-02T12:20:39.090Z,14.80
2018-10-02T12:25:33.961Z,14.42
2018-10-02T12:30:28.757Z,14.23
2018-10-02T12:35:23.550Z,14.23
2018-10-02T12:40:18.366Z,14.38
2018-10-02T12:45:13.174Z,14.17
2018-10-02T12:50:08.048Z,14.08
2018-10-02T12:55:02.850Z,14.38
2018-10-02T12:59:57.673Z,14.39
2018-10-02T13:04:52.430Z,14.33
2018-10-02T13:09:47.255Z,14.33
2018-10-02T13:14:43.857Z,14.16
2018-10-02T13:19:40.791Z,14.18
2018-10-02T13:24:35.750Z,14.16
2018-10-02T13:29:30.561Z,14.11
2018-10-02T13:34:25.562Z,14.19
2018-10-02T13:39:20.358Z,14.39
2018-10-02T13:44:15.294Z,14.56
2018-10-02T13:49:10.162Z,14.33
2018-10-02T13:54:04.967Z,13.99
2018-10-02T13:58:59.832Z,13.86
2018-10-02T14:03:54.660Z,13.61
2018-10-02T14:08:49.495Z,13.71
2018-10-02T14:13:44.322Z,13.46
2018-10-02T14:18:39.122Z,13.59
2018-10-02T14:23:34.345Z,13.63
2018-10-02T14:28:29.235Z,13.49
2018-10-02T14:33:24.059Z,13.41
2018-10-02T14:38:18.867Z,13.56
2018-10-02T14:43:14.658Z,13.52
2018-10-02T14:48:09.534Z,13.57
2018-10-02T14:53:04.407Z,13.65
2018-10-02T14:57:59.210Z,13.56
2018-10-02T15:02:54.058Z,13.58
2018-10-02T15:07:48.854Z,13.47
2018-10-02T15:12:43.706Z,13.25
2018-10-02T15:17:40.111Z,13.17
2018-10-02T15:22:35.358Z,13.11
2018-10-02T15:27:30.204Z,12.91
2018-10-02T15:32:25.011Z,12.83
2018-10-02T15:37:19.840Z,12.79
2018-10-02T15:42:14.673Z,12.78
2018-10-02T15:47:10.602Z,12.78
2018-10-02T15:52:05.473Z,12.77
2018-10-02T15:57:00.276Z,12.74
2018-10-02T16:01:55.078Z,12.70
2018-10-02T16:06:49.962Z,12.55
2018-10-02T16:11:45.019Z,12.44
2018-10-02T16:16:39.794Z,12.47
2018-10-02T16:21:34.631Z,12.48
2018-10-02T16:26:29.505Z,12.41
2018-10-02T16:31:24.325Z,12.33
2018-10-02T16:36:19.380Z,12.30
2018-10-02T16:41:14.489Z,12.17
2018-10-02T16:46:09.332Z,12.21
2018-10-02T16:51:04.193Z,12.27
2018-10-02T16:55:59.006Z,12.22
2018-10-02T17:00:53.973Z,12.23
2018-10-02T17:05:50.227Z,12.11
2018-10-02T17:10:46.023Z,12.05
2018-10-02T17:15:41.287Z,12.02
2018-10-02T17:20:36.157Z,11.97
2018-10-02T17:25:30.975Z,11.95
2018-10-02T17:30:26.031Z,12.09
2018-10-02T17:35:20.928Z,12.02
2018-10-02T17:40:15.830Z,11.92
2018-10-02T17:45:10.699Z,11.96
2018-10-02T17:50:05.615Z,11.98
2018-10-02T17:55:00.540Z,11.95
2018-10-02T17:59:55.473Z,11.93
2018-10-02T18:04:50.325Z,11.89
2018-10-02T18:09:45.130Z,11.93
2018-10-02T18:14:39.961Z,11.89
2018-10-02T18:19:34.819Z,11.78
2018-10-02T18:24:29.707Z,11.66
2018-10-02T18:29:24.538Z,11.52
2018-10-02T18:34:19.432Z,11.45
2018-10-02T18:39:15.296Z,11.55
2018-10-02T18:44:11.249Z,11.50
2018-10-02T18:49:06.357Z,11.40
2018-10-02T18:54:01.251Z,11.54
2018-10-02T18:58:56.363Z,11.55
2018-10-02T19:03:51.256Z,11.58
2018-10-02T19:08:51.373Z,11.51
2018-10-02T19:13:46.514Z,11.42
2018-10-02T19:18:41.615Z,11.42
2018-10-02T19:23:36.749Z,11.54
2018-10-02T19:28:33.205Z,11.47
2018-10-02T19:33:28.818Z,11.44
2018-10-02T19:38:30.244Z,11.38
2018-10-02T19:43:25.321Z,11.54
2018-10-02T19:48:20.776Z,11.40
2018-10-02T19:53:15.640Z,11.36
2018-10-02T19:58:11.469Z,11.51
2018-10-02T20:03:09.270Z,11.29
2018-10-02T20:08:04.965Z,11.32
2018-10-02T20:12:59.811Z,11.44
2018-10-02T20:17:54.642Z,11.42
2018-10-02T20:22:49.636Z,11.40
2018-10-02T20:27:44.557Z,11.43
2018-10-02T20:32:39.406Z,11.39
2018-10-02T20:37:34.331Z,11.38
2018-10-02T20:42:29.234Z,11.42
2018-10-02T20:47:24.299Z,11.45
2018-10-02T20:52:19.182Z,11.45
2018-10-02T20:57:14.378Z,11.31
2018-10-02T21:02:09.273Z,11.17
2018-10-02T21:07:05.222Z,11.28
2018-10-02T21:12:00.953Z,11.23
2018-10-02T21:16:56.631Z,11.40
2018-10-02T21:21:51.615Z,11.39
2018-10-02T21:26:46.485Z,11.23
2018-10-02T21:31:42.405Z,11.24
2018-10-02T21:36:37.282Z,11.11
2018-10-02T21:41:32.752Z,11.19
2018-10-02T21:46:27.842Z,11.06
2018-10-02T21:51:25.356Z,11.18
2018-10-02T21:56:20.186Z,11.17
2018-10-02T22:01:15.335Z,11.08
2018-10-02T22:06:10.163Z,11.01
2018-10-02T22:11:05.109Z,11.00
2018-10-02T22:16:00.306Z,11.03
2018-10-02T22:20:55.170Z,10.98
2018-10-02T22:25:49.958Z,10.84
2018-10-02T22:30:44.814Z,10.81
2018-10-02T22:35:39.749Z,10.86
2018-10-02T22:40:34.564Z,10.86
2018-10-02T22:45:29.402Z,10.77
2018-10-02T22:50:24.210Z,10.76
2018-10-02T22:55:19.229Z,10.80
2018-10-02T23:00:14.062Z,10.79
2018-10-02T23:05:08.938Z,10.76
2018-10-02T23:10:03.893Z,10.81
2018-10-02T23:14:58.689Z,10.77
2018-10-02T23:19:53.487Z,10.88
2018-10-02T23:24:48.307Z,10.94
2018-10-02T23:29:43.110Z,10.88
2018-10-02T23:34:37.935Z,10.96
2018-10-02T23:39:33.060Z,11.02
2018-10-02T23:44:27.932Z,10.83
2018-10-02T23:49:22.710Z,10.75
2018-10-02T23:54:17.569Z,10.88
2018-10-02T23:59:12.434Z,10.96
